createdAt,value
2019-05-11T00:01:02.017Z,32.20
2019-05-11T00:03:30.448Z,33.08
2019-05-11T00:05:58.888Z,31.02
2019-05-11T00:08:27.330Z,26.42
2019-05-11T00:10:55.757Z,27.85
2019-05-11T00:13:24.200Z,24.60
2019-05-11T00:15:52.644Z,28.73
2019-05-11T00:18:21.065Z,28.80
2019-05-11T00:20:49.494Z,28.57
2019-05-11T00:23:17.952Z,30.20
2019-05-11T00:25:46.377Z,29.10
2019-05-11T00:28:14.851Z,29.45
2019-05-11T00:30:43.255Z,27.85
2019-05-11T00:33:11.703Z,27.25
2019-05-11T00:35:40.114Z,34.13
2019-05-11T00:38:08.538Z,27.00
2019-05-11T00:40:36.956Z,28.83
2019-05-11T00:43:05.417Z,33.02
2019-05-11T00:45:33.851Z,31.48
2019-05-11T00:48:02.275Z,33.23
2019-05-11T00:50:39.430Z,35.23
2019-05-11T00:53:00.884Z,30.72
2019-05-11T00:55:29.313Z,33.83
2019-05-11T00:57:57.741Z,31.73
2019-05-11T01:00:26.157Z,30.20
2019-05-11T01:02:54.617Z,30.02
2019-05-11T01:05:23.035Z,31.15
2019-05-11T01:07:51.564Z,32.50
2019-05-11T01:10:25.423Z,28.95
2019-05-11T01:12:50.118Z,32.33
2019-05-11T01:15:18.804Z,27.60
2019-05-11T01:17:47.234Z,25.45
2019-05-11T01:20:18.571Z,28.15
2019-05-11T01:22:45.977Z,30.08
2019-05-11T01:25:14.418Z,29.02
2019-05-11T01:27:42.829Z,27.67
2019-05-11T01:30:11.619Z,28.60
2019-05-11T01:32:40.041Z,29.00
2019-05-11T01:35:09.500Z,31.23
2019-05-11T01:37:37.908Z,28.35
2019-05-11T01:40:06.800Z,31.93
2019-05-11T01:42:35.513Z,30.57
2019-05-11T01:45:05.070Z,28.10
2019-05-11T01:47:33.503Z,27.65
2019-05-11T01:50:02.004Z,30.50
2019-05-11T01:52:30.436Z,28.52
2019-05-11T01:54:58.861Z,25.85
2019-05-11T01:57:27.271Z,25.82
2019-05-11T01:59:55.703Z,24.63
2019-05-11T02:02:24.141Z,24.92
2019-05-11T02:05:10.199Z,24.63
2019-05-11T02:07:40.136Z,26.00
2019-05-11T02:10:08.692Z,25.53
2019-05-11T02:12:38.134Z,29.25
2019-05-11T02:15:06.638Z,25.68
2019-05-11T02:17:35.117Z,26.55
2019-05-11T02:20:04.251Z,22.40
2019-05-11T02:22:32.659Z,23.80
2019-05-11T02:25:01.089Z,23.92
2019-05-11T02:27:32.102Z,28.15
2019-05-11T02:29:59.744Z,27.27
2019-05-11T02:32:28.159Z,25.70
2019-05-11T02:34:56.599Z,30.62
2019-05-11T02:37:25.021Z,22.35
2019-05-11T02:39:53.535Z,27.35
2019-05-11T02:42:21.953Z,20.60
2019-05-11T02:44:50.387Z,20.90
2019-05-11T02:47:18.790Z,26.65
2019-05-11T02:49:47.238Z,24.32
2019-05-11T02:52:16.078Z,25.43
2019-05-11T02:54:45.540Z,30.27
2019-05-11T02:57:13.986Z,27.13
2019-05-11T02:59:43.902Z,24.75
2019-05-11T03:02:12.359Z,26.00
2019-05-11T03:04:41.032Z,22.87
2019-05-11T03:07:09.462Z,28.85
2019-05-11T03:09:37.884Z,29.37
2019-05-11T03:12:06.303Z,28.07
2019-05-11T03:14:34.723Z,25.32
2019-05-11T03:17:10.379Z,26.97
2019-05-11T03:19:38.796Z,29.20
2019-05-11T03:22:07.206Z,25.57
2019-05-11T03:24:35.628Z,27.75
2019-05-11T03:27:04.125Z,27.65
2019-05-11T03:29:32.547Z,27.73
2019-05-11T03:32:00.974Z,26.65
2019-05-11T03:34:29.402Z,27.20
2019-05-11T03:36:57.809Z,25.85
2019-05-11T03:39:26.240Z,28.65
2019-05-11T03:42:12.055Z,23.90
2019-05-11T03:44:24.791Z,25.05
2019-05-11T03:46:53.214Z,27.62
2019-05-11T03:49:21.620Z,27.05
2019-05-11T03:51:50.090Z,29.80
2019-05-11T03:54:18.501Z,29.35
2019-05-11T03:56:46.940Z,27.37
2019-05-11T03:59:15.342Z,28.47
2019-05-11T04:01:43.760Z,26.50
2019-05-11T04:04:16.222Z,28.10
2019-05-11T04:06:42.319Z,29.80
2019-05-11T04:09:10.731Z,27.22
2019-05-11T04:11:39.165Z,29.67
2019-05-11T04:14:07.597Z,29.40
2019-05-11T04:16:35.996Z,26.48
2019-05-11T04:19:04.414Z,26.17
2019-05-11T04:21:32.835Z,23.35
2019-05-11T04:24:01.246Z,24.85
2019-05-11T04:26:29.684Z,34.23
2019-05-11T04:28:58.091Z,33.55
2019-05-11T04:31:26.533Z,29.48
2019-05-11T04:33:54.934Z,28.62
2019-05-11T04:36:23.431Z,26.68
2019-05-11T04:38:51.842Z,26.75
2019-05-11T04:41:20.259Z,31.62
2019-05-11T04:43:50.321Z,26.77
2019-05-11T04:46:18.751Z,26.42
2019-05-11T04:48:47.175Z,25.23
2019-05-11T04:51:15.580Z,23.62
2019-05-11T04:53:43.990Z,21.52
2019-05-11T04:56:12.455Z,22.35
2019-05-11T04:58:40.952Z,27.67
2019-05-11T05:01:09.416Z,21.95
2019-05-11T05:03:41.113Z,27.52
2019-05-11T05:06:22.258Z,28.05
2019-05-11T05:08:38.129Z,24.45
2019-05-11T05:11:06.557Z,24.00
2019-05-11T05:13:34.991Z,21.65
2019-05-11T05:16:03.413Z,22.22
2019-05-11T05:18:31.822Z,24.18
2019-05-11T05:21:00.254Z,23.52
2019-05-11T05:23:30.145Z,21.80
2019-05-11T05:25:58.584Z,23.30
2019-05-11T05:28:27.008Z,23.35
2019-05-11T05:30:55.447Z,20.52
2019-05-11T05:33:23.842Z,29.30
2019-05-11T05:35:52.302Z,22.15
2019-05-11T05:38:20.729Z,23.00
2019-05-11T05:40:49.149Z,20.48
2019-05-11T05:43:26.011Z,24.67
2019-05-11T05:45:47.708Z,29.20
2019-05-11T05:48:16.152Z,27.35
2019-05-11T05:50:44.571Z,21.33
2019-05-11T05:53:13.004Z,24.82
2019-05-11T05:55:41.401Z,20.62
2019-05-11T05:58:09.833Z,22.87
2019-05-11T06:00:38.264Z,23.32
2019-05-11T06:03:06.693Z,22.80
2019-05-11T06:05:35.110Z,21.97
2019-05-11T06:08:03.566Z,20.50
2019-05-11T06:10:31.985Z,25.90
2019-05-11T06:13:00.418Z,28.95
2019-05-11T06:15:28.844Z,28.20
2019-05-11T06:18:00.624Z,27.20
2019-05-11T06:20:28.849Z,28.15
2019-05-11T06:22:57.519Z,29.98
2019-05-11T06:25:25.966Z,31.35
2019-05-11T06:27:54.399Z,26.70
2019-05-11T06:30:22.816Z,28.15
2019-05-11T06:32:51.268Z,27.62
2019-05-11T06:35:22.514Z,30.70
2019-05-11T06:37:49.937Z,27.98
2019-05-11T06:40:18.508Z,27.02
2019-05-11T06:42:46.960Z,29.67
2019-05-11T06:45:15.530Z,29.40
2019-05-11T06:47:43.967Z,35.38
2019-05-11T06:50:12.718Z,28.32
2019-05-11T06:52:41.185Z,25.60
2019-05-11T06:55:09.672Z,27.02
2019-05-11T06:57:38.091Z,25.57
2019-05-11T07:00:07.158Z,28.32
2019-05-11T07:02:35.671Z,27.27
2019-05-11T07:05:05.545Z,27.77
2019-05-11T07:07:46.445Z,25.20
2019-05-11T07:10:05.980Z,25.05
2019-05-11T07:12:34.402Z,28.25
2019-05-11T07:15:05.460Z,28.12
2019-05-11T07:17:33.914Z,22.85
2019-05-11T07:20:02.370Z,27.10
2019-05-11T07:22:30.795Z,19.90
2019-05-11T07:24:59.209Z,23.60
2019-05-11T07:27:27.658Z,26.33
2019-05-11T07:29:56.102Z,24.60
2019-05-11T07:32:26.128Z,25.40
2019-05-11T07:34:57.717Z,25.32
2019-05-11T07:37:28.057Z,26.23
2019-05-11T07:39:58.048Z,20.20
2019-05-11T07:42:28.646Z,22.70
2019-05-11T07:44:58.220Z,22.22
2019-05-11T07:47:27.779Z,18.02
2019-05-11T07:49:57.928Z,18.52
2019-05-11T07:52:28.571Z,26.75
2019-05-11T07:54:58.089Z,16.95
2019-05-11T07:57:28.447Z,19.97
2019-05-11T07:59:59.095Z,18.55
2019-05-11T08:02:28.541Z,25.80
2019-05-11T08:04:58.644Z,19.07
2019-05-11T08:07:28.487Z,20.70
2019-05-11T08:09:58.758Z,19.00
2019-05-11T08:12:28.530Z,25.43
2019-05-11T08:15:05.970Z,17.20
2019-05-11T08:17:28.683Z,20.72
2019-05-11T08:19:58.084Z,30.20
2019-05-11T08:22:28.460Z,19.65
2019-05-11T08:24:58.563Z,19.15
2019-05-11T08:27:28.642Z,24.65
2019-05-11T08:29:58.061Z,21.93
2019-05-11T08:32:28.632Z,20.25
2019-05-11T08:34:58.205Z,23.75
2019-05-11T08:37:28.508Z,21.77
2019-05-11T08:39:58.712Z,18.87
2019-05-11T08:42:28.910Z,25.63
2019-05-11T08:45:15.238Z,27.82
2019-05-11T08:47:28.417Z,22.65
2019-05-11T08:49:58.940Z,20.80
2019-05-11T08:52:28.095Z,22.62
2019-05-11T08:54:57.797Z,25.27
2019-05-11T08:57:28.508Z,26.42
2019-05-11T08:59:57.925Z,22.32
2019-05-11T09:02:27.793Z,25.00
2019-05-11T09:04:58.722Z,21.40
2019-05-11T09:07:27.807Z,20.15
2019-05-11T09:09:58.390Z,22.58
2019-05-11T09:12:28.731Z,24.37
2019-05-11T09:14:58.158Z,21.77
2019-05-11T09:17:28.854Z,27.37
2019-05-11T09:19:58.149Z,16.82
2019-05-11T09:22:28.303Z,17.57
2019-05-11T09:24:58.247Z,13.00
2019-05-11T09:27:28.626Z,15.00
2019-05-11T09:29:58.786Z,15.78
2019-05-11T09:32:28.489Z,17.23
2019-05-11T09:34:57.951Z,18.52
2019-05-11T09:37:27.705Z,15.90
2019-05-11T09:39:58.345Z,18.48
2019-05-11T09:42:28.601Z,15.70
2019-05-11T09:44:57.743Z,16.57
2019-05-11T09:47:27.943Z,23.18
2019-05-11T09:49:58.367Z,13.75
2019-05-11T09:52:32.077Z,15.80
2019-05-11T09:54:58.753Z,18.77
2019-05-11T09:57:27.710Z,16.37
2019-05-11T09:59:58.197Z,13.80
2019-05-11T10:02:28.024Z,17.23
2019-05-11T10:04:57.826Z,15.93
2019-05-11T10:07:28.453Z,13.50
2019-05-11T10:12:59.203Z,11.85
2019-05-11T10:15:28.030Z,14.65
2019-05-11T10:17:58.230Z,10.98
2019-05-11T10:20:28.629Z,11.95
2019-05-11T10:22:57.938Z,17.10
2019-05-11T10:25:28.488Z,13.10
2019-05-11T10:27:57.992Z,11.55
2019-05-11T10:30:28.041Z,7.40
2019-05-11T10:32:57.775Z,8.45
2019-05-11T10:35:28.189Z,11.45
2019-05-11T10:37:58.288Z,12.33
2019-05-11T10:40:28.153Z,8.10
2019-05-11T10:42:58.804Z,10.18
2019-05-11T10:45:28.505Z,11.48
2019-05-11T10:48:00.402Z,10.85
2019-05-11T10:50:28.749Z,11.18
2019-05-11T10:52:59.007Z,17.00
2019-05-11T10:55:28.005Z,14.85
2019-05-11T10:57:58.059Z,13.65
2019-05-11T11:00:28.250Z,10.93
2019-05-11T11:02:58.131Z,14.43
2019-05-11T11:05:28.320Z,12.45
2019-05-11T11:07:58.860Z,9.87
2019-05-11T11:10:28.682Z,9.55
2019-05-11T11:12:57.784Z,11.57
2019-05-11T11:15:28.636Z,10.82
2019-05-11T11:17:57.919Z,10.45
2019-05-11T11:20:28.014Z,15.63
2019-05-11T11:22:59.519Z,12.00
2019-05-11T11:25:28.529Z,14.20
2019-05-11T11:27:57.879Z,10.72
2019-05-11T11:30:28.399Z,13.93
2019-05-11T11:32:58.617Z,15.93
2019-05-11T11:35:27.905Z,9.88
2019-05-11T11:37:58.512Z,14.93
2019-05-11T11:40:28.198Z,11.43
2019-05-11T11:42:58.096Z,11.10
2019-05-11T11:45:28.775Z,10.70
2019-05-11T11:47:58.021Z,10.68
2019-05-11T11:50:28.365Z,11.97
2019-05-11T11:52:57.892Z,14.95
2019-05-11T11:55:28.764Z,17.27
2019-05-11T11:57:58.658Z,10.23
2019-05-11T12:00:28.766Z,9.80
2019-05-11T12:02:58.028Z,11.28
2019-05-11T12:05:28.321Z,13.38
2019-05-11T12:07:57.986Z,14.28
2019-05-11T12:10:28.510Z,13.80
2019-05-11T12:12:58.135Z,16.55
2019-05-11T12:15:28.324Z,11.20
2019-05-11T12:17:58.853Z,11.22
2019-05-11T12:20:28.705Z,11.08
2019-05-11T12:22:58.148Z,9.93
2019-05-11T12:25:27.974Z,11.95
2019-05-11T12:27:57.734Z,12.53
2019-05-11T12:30:28.492Z,13.43
2019-05-11T12:32:58.007Z,12.73
2019-05-11T12:35:28.441Z,7.95
2019-05-11T12:37:58.726Z,13.22
2019-05-11T12:40:28.694Z,11.85
2019-05-11T12:42:59.054Z,16.95
2019-05-11T12:45:29.610Z,13.10
2019-05-11T12:50:28.826Z,14.35
2019-05-11T12:52:58.805Z,13.90
2019-05-11T12:55:28.657Z,16.82
2019-05-11T12:57:57.987Z,11.83
2019-05-11T13:00:31.126Z,11.45
2019-05-11T13:02:58.705Z,12.78
2019-05-11T13:05:28.853Z,21.45
2019-05-11T13:07:58.583Z,10.50
2019-05-11T13:10:28.424Z,9.90
2019-05-11T13:12:58.114Z,13.10
2019-05-11T13:15:28.141Z,12.93
2019-05-11T13:17:58.129Z,11.22
2019-05-11T13:20:28.600Z,16.13
2019-05-11T13:22:58.681Z,10.18
2019-05-11T13:25:28.252Z,16.82
2019-05-11T13:27:58.151Z,17.35
2019-05-11T13:30:27.835Z,12.97
2019-05-11T13:32:57.996Z,14.20
2019-05-11T13:35:28.505Z,16.60
2019-05-11T13:37:58.522Z,17.50
2019-05-11T13:40:27.947Z,15.98
2019-05-11T13:42:58.211Z,22.17
2019-05-11T13:45:28.225Z,21.68
2019-05-11T13:47:59.306Z,15.78
2019-05-11T13:50:26.865Z,13.53
2019-05-11T13:52:58.406Z,19.27
2019-05-11T13:55:28.427Z,15.05
2019-05-11T13:57:57.895Z,17.52
2019-05-11T14:00:28.645Z,13.32
2019-05-11T14:02:58.460Z,13.68
2019-05-11T14:05:28.443Z,10.78
2019-05-11T14:07:58.642Z,15.90
2019-05-11T14:10:28.280Z,16.30
2019-05-11T14:12:58.152Z,9.83
2019-05-11T14:15:28.073Z,15.20
2019-05-11T14:20:28.756Z,16.57
2019-05-11T14:22:58.268Z,17.05
2019-05-11T14:25:27.946Z,20.25
2019-05-11T14:27:56.491Z,14.18
2019-05-11T14:30:25.061Z,16.40
2019-05-11T14:32:21.226Z,13.70
2019-05-11T14:32:53.495Z,13.00
2019-05-11T14:35:21.915Z,13.58
2019-05-11T14:37:50.336Z,23.62
2019-05-11T14:40:18.792Z,19.20
2019-05-11T14:42:48.942Z,21.93
2019-05-11T14:45:18.790Z,18.80
2019-05-11T14:47:47.841Z,16.60
2019-05-11T14:50:18.584Z,18.35
2019-05-11T14:52:48.858Z,19.07
2019-05-11T14:55:18.418Z,25.90
2019-05-11T14:57:48.649Z,21.52
2019-05-11T15:00:18.538Z,13.65
2019-05-11T15:02:49.114Z,21.67
2019-05-11T15:05:18.690Z,18.37
2019-05-11T15:07:48.453Z,19.82
2019-05-11T15:10:18.725Z,18.48
2019-05-11T15:12:48.903Z,17.37
2019-05-11T15:15:18.792Z,12.63
2019-05-11T15:17:49.322Z,15.77
2019-05-11T15:20:18.639Z,20.55
2019-05-11T15:22:48.910Z,14.65
2019-05-11T15:25:19.552Z,13.60
2019-05-11T15:27:48.927Z,12.55
2019-05-11T15:30:18.327Z,14.15
2019-05-11T15:32:48.149Z,9.20
2019-05-11T15:35:18.499Z,7.00
2019-05-11T15:37:48.151Z,4.30
2019-05-11T15:40:18.816Z,10.45
2019-05-11T15:42:48.632Z,11.90
2019-05-11T15:45:19.351Z,7.65
2019-05-11T15:47:48.715Z,6.75
2019-05-11T15:50:18.969Z,9.90
2019-05-11T15:52:48.740Z,10.53
2019-05-11T15:55:18.949Z,12.20
2019-05-11T15:57:48.274Z,11.25
2019-05-11T16:00:17.541Z,8.88
2019-05-11T16:02:48.679Z,9.23
2019-05-11T16:05:18.295Z,11.78
2019-05-11T16:07:48.889Z,6.85
2019-05-11T16:10:18.522Z,7.97
2019-05-11T16:12:48.625Z,10.28
2019-05-11T16:15:19.243Z,12.98
2019-05-11T16:17:48.619Z,9.40
2019-05-11T16:20:18.427Z,11.27
2019-05-11T16:22:47.942Z,7.75
2019-05-11T16:25:19.624Z,10.10
2019-05-11T16:27:47.678Z,11.10
2019-05-11T16:30:20.814Z,8.75
2019-05-11T16:32:48.100Z,13.50
2019-05-11T16:35:18.051Z,9.80
2019-05-11T16:37:48.602Z,8.90
2019-05-11T16:40:20.193Z,12.13
2019-05-11T16:42:47.859Z,7.40
2019-05-11T16:45:18.905Z,9.10
2019-05-11T16:47:48.218Z,7.83
2019-05-11T16:50:18.055Z,12.90
2019-05-11T16:52:48.145Z,5.80
2019-05-11T16:55:18.281Z,9.63
2019-05-11T16:57:48.519Z,6.80
2019-05-11T17:00:17.196Z,12.28
2019-05-11T17:02:49.141Z,14.07
2019-05-11T17:05:26.087Z,9.63
2019-05-11T17:07:48.341Z,7.35
2019-05-11T17:10:18.272Z,10.15
2019-05-11T17:12:48.403Z,9.78
2019-05-11T17:15:18.561Z,10.30
2019-05-11T17:17:49.162Z,11.33
2019-05-11T17:20:18.696Z,11.10
2019-05-11T17:22:48.971Z,9.63
2019-05-11T17:25:19.327Z,8.93
2019-05-11T17:27:49.132Z,11.03
2019-05-11T17:30:19.358Z,6.62
2019-05-11T17:32:50.121Z,9.80
2019-05-11T17:35:18.675Z,11.22
2019-05-11T17:37:48.942Z,8.40
2019-05-11T17:40:22.250Z,9.60
2019-05-11T17:45:18.906Z,16.80
2019-05-11T17:47:49.662Z,9.40
2019-05-11T17:50:19.229Z,13.78
2019-05-11T17:52:48.850Z,11.95
2019-05-11T17:55:18.444Z,9.25
2019-05-11T17:57:53.749Z,17.55
2019-05-11T18:00:20.544Z,13.85
2019-05-11T18:02:50.849Z,12.63
2019-05-11T18:05:19.275Z,10.68
2019-05-11T18:07:47.694Z,10.03
2019-05-11T18:10:18.190Z,17.55
2019-05-11T18:12:49.941Z,13.72
2019-05-11T18:15:18.991Z,14.78
2019-05-11T18:17:48.414Z,10.68
2019-05-11T18:20:21.683Z,14.18
2019-05-11T18:22:49.379Z,12.35
2019-05-11T18:25:18.635Z,10.20
2019-05-11T18:27:48.263Z,15.98
2019-05-11T18:30:17.274Z,11.00
2019-05-11T18:32:48.631Z,17.82
2019-05-11T18:35:15.905Z,14.95
2019-05-11T18:37:44.317Z,13.80
2019-05-11T18:40:12.842Z,18.07
2019-05-11T18:42:41.287Z,10.58
2019-05-11T18:45:09.848Z,13.32
2019-05-11T18:47:38.447Z,14.68
2019-05-11T18:50:07.924Z,30.88
2019-05-11T18:52:36.420Z,20.55
2019-05-11T18:55:08.172Z,13.65
2019-05-11T18:57:38.183Z,11.30
2019-05-11T19:00:10.940Z,7.03
2019-05-11T19:02:39.365Z,11.48
2019-05-11T19:05:08.019Z,10.55
2019-05-11T19:07:38.557Z,10.15
2019-05-11T19:10:08.818Z,22.15
2019-05-11T19:12:37.794Z,14.45
2019-05-11T19:15:08.408Z,13.18
2019-05-11T19:17:38.457Z,9.93
2019-05-11T19:20:08.454Z,10.03
2019-05-11T19:22:37.777Z,11.55
2019-05-11T19:25:08.954Z,18.20
2019-05-11T19:27:37.616Z,9.95
2019-05-11T19:30:08.958Z,10.05
2019-05-11T19:32:38.297Z,13.85
2019-05-11T19:35:08.981Z,10.63
2019-05-11T19:37:38.669Z,8.30
2019-05-11T19:40:09.180Z,8.13
2019-05-11T19:42:54.316Z,13.53
2019-05-11T19:45:23.451Z,11.25
2019-05-11T19:47:51.914Z,11.30
2019-05-11T19:50:20.336Z,7.83
2019-05-11T19:52:48.764Z,10.35
2019-05-11T19:55:17.871Z,35.65
2019-05-11T19:57:48.192Z,25.35
2019-05-11T20:00:18.633Z,13.58
2019-05-11T20:02:47.076Z,10.80
2019-05-11T20:05:15.491Z,10.93
2019-05-11T20:07:43.941Z,12.78
2019-05-11T20:10:12.520Z,10.85
2019-05-11T20:12:41.906Z,9.53
2019-05-11T20:15:10.762Z,11.97
2019-05-11T20:17:39.357Z,9.48
2019-05-11T20:20:08.840Z,11.88
2019-05-11T20:22:39.034Z,11.73
2019-05-11T20:26:12.339Z,16.50
2019-05-11T20:28:40.766Z,15.30
2019-05-11T20:31:09.170Z,10.20
2019-05-11T20:33:38.527Z,11.97
2019-05-11T20:36:08.663Z,14.85
2019-05-11T20:38:38.358Z,20.25
2019-05-11T20:41:08.378Z,17.87
2019-05-11T20:43:36.905Z,16.00
2019-05-11T20:46:08.040Z,20.08
2019-05-11T20:48:38.046Z,12.73
2019-05-11T20:51:07.992Z,19.40
2019-05-11T20:53:36.131Z,14.80
2019-05-11T20:56:05.132Z,11.88
2019-05-11T20:58:35.188Z,12.35
2019-05-11T21:01:04.488Z,17.67
2019-05-11T21:03:32.953Z,12.33
2019-05-11T21:06:01.404Z,20.55
2019-05-11T21:08:30.284Z,10.95
2019-05-11T21:10:58.763Z,19.57
2019-05-11T21:13:28.224Z,15.40
2019-05-11T21:15:59.121Z,11.25
2019-05-11T21:18:28.803Z,10.53
2019-05-11T21:20:57.711Z,10.23
2019-05-11T21:23:26.336Z,9.20
2019-05-11T21:25:54.762Z,16.10
2019-05-11T21:28:23.259Z,15.45
2019-05-11T21:30:51.700Z,9.58
2019-05-11T21:33:20.119Z,13.08
2019-05-11T21:35:48.959Z,7.87
2019-05-11T21:38:17.721Z,11.80
2019-05-11T21:40:48.401Z,8.30
2019-05-11T21:43:16.278Z,9.93
2019-05-11T21:45:44.685Z,14.95
2019-05-11T21:48:13.105Z,15.20
2019-05-11T21:50:42.463Z,20.08
2019-05-11T21:53:11.784Z,13.03
2019-05-11T21:55:40.199Z,14.58
2019-05-11T21:58:09.147Z,14.70
2019-05-11T22:00:38.747Z,12.15
2019-05-11T22:03:10.338Z,13.55
2019-05-11T22:05:38.909Z,14.05
2019-05-11T22:08:08.549Z,13.70
2019-05-11T22:10:38.582Z,14.43
2019-05-11T22:13:07.108Z,17.75
2019-05-11T22:15:38.335Z,13.13
2019-05-11T22:18:07.819Z,7.10
2019-05-11T22:20:38.008Z,14.50
2019-05-11T22:23:08.256Z,10.15
2019-05-11T22:25:38.134Z,11.05
2019-05-11T22:28:08.328Z,9.60
2019-05-11T22:30:36.446Z,12.55
2019-05-11T22:33:04.941Z,16.48
2019-05-11T22:35:33.362Z,11.10
2019-05-11T22:38:01.816Z,11.73
2019-05-11T22:40:30.239Z,13.38
2019-05-11T22:43:01.217Z,10.58
2019-05-11T22:45:28.799Z,7.70
2019-05-11T22:47:58.498Z,8.10
2019-05-11T22:50:29.045Z,9.50
2019-05-11T22:52:57.139Z,10.05
2019-05-11T22:55:27.556Z,9.88
2019-05-11T22:57:57.743Z,18.35
2019-05-11T23:00:45.064Z,9.18
2019-05-11T23:03:13.657Z,13.08
2019-05-11T23:05:42.715Z,12.00
2019-05-11T23:08:11.203Z,8.95
2019-05-11T23:10:39.628Z,12.23
2019-05-11T23:13:11.113Z,11.68
2019-05-11T23:15:40.286Z,8.95
2019-05-11T23:18:08.771Z,12.35
2019-05-11T23:20:38.563Z,12.40
2019-05-11T23:23:09.091Z,15.18
2019-05-11T23:25:37.462Z,16.10
2019-05-11T23:28:05.863Z,9.85
2019-05-11T23:30:34.297Z,10.95
2019-05-11T23:33:02.701Z,9.60
2019-05-11T23:35:31.155Z,16.27
2019-05-11T23:37:59.558Z,15.15
2019-05-11T23:40:28.532Z,9.15
2019-05-11T23:42:57.864Z,11.38
2019-05-11T23:45:27.993Z,15.70
2019-05-11T23:47:58.831Z,17.75
2019-05-11T23:50:28.085Z,18.75
2019-05-11T23:53:05.955Z,16.17
2019-05-11T23:55:28.959Z,16.97
2019-05-11T23:57:57.776Z,13.43
